createdAt,value
2022-12-03T00:01:19.798Z,101061.78
2022-12-03T00:03:47.468Z,101050.78
2022-12-03T00:06:15.062Z,101056.88
2022-12-03T00:08:42.576Z,101050.13
2022-12-03T00:11:10.000Z,101047.16
2022-12-03T00:13:37.469Z,101034.38
2022-12-03T00:16:05.378Z,101046.41
2022-12-03T00:18:32.989Z,101052.44
2022-12-03T00:21:00.634Z,101041.81
2022-12-03T00:23:28.193Z,101033.47
2022-12-03T00:25:55.741Z,101051.97
2022-12-03T00:28:23.229Z,101042.34
2022-12-03T00:30:54.315Z,101036.78
2022-12-03T00:33:22.623Z,101033.84
2022-12-03T00:35:50.247Z,101038.75
2022-12-03T00:38:17.750Z,101036.41
2022-12-03T00:40:45.262Z,101035.91
2022-12-03T00:43:12.757Z,101042.44
2022-12-03T00:45:40.257Z,101036.72
2022-12-03T00:48:07.732Z,101029.84
2022-12-03T00:50:35.285Z,101039.03
2022-12-03T00:53:02.784Z,101027.59
2022-12-03T00:55:30.310Z,101036.94
2022-12-03T00:57:57.753Z,101026.94
2022-12-03T01:00:25.708Z,101033.63
2022-12-03T01:02:53.409Z,101032.50
2022-12-03T01:05:21.253Z,101031.88
2022-12-03T01:07:48.884Z,101024.00
2022-12-03T01:10:16.592Z,101027.13
2022-12-03T01:12:44.061Z,101024.66
2022-12-03T01:15:11.949Z,101027.28
2022-12-03T01:17:39.708Z,101022.53
2022-12-03T01:20:09.549Z,101021.56
2022-12-03T01:22:37.065Z,101015.63
2022-12-03T01:25:05.105Z,101022.69
2022-12-03T01:27:32.614Z,101021.72
2022-12-03T01:30:00.137Z,101015.13
2022-12-03T01:32:27.795Z,101017.59
2022-12-03T01:34:56.649Z,101011.69
2022-12-03T01:37:26.388Z,101006.81
2022-12-03T01:39:54.566Z,101014.16
2022-12-03T01:42:26.257Z,101014.00
2022-12-03T01:44:56.364Z,100998.56
2022-12-03T01:47:35.592Z,101006.59
2022-12-03T01:50:30.797Z,101012.38
2022-12-03T01:53:00.894Z,101017.59
2022-12-03T01:55:29.220Z,101011.78
2022-12-03T01:58:00.036Z,101003.34
2022-12-03T02:00:29.486Z,101004.16
2022-12-03T02:03:02.726Z,101009.06
2022-12-03T02:05:34.225Z,101011.53
2022-12-03T02:08:02.013Z,101009.22
2022-12-03T02:10:36.502Z,101022.53
2022-12-03T02:13:09.783Z,101010.41
2022-12-03T02:15:39.712Z,101009.38
2022-12-03T02:18:09.315Z,101009.53
2022-12-03T02:20:51.523Z,101006.44
2022-12-03T02:23:41.967Z,101002.06
2022-12-03T02:26:09.496Z,101003.94
2022-12-03T02:28:38.441Z,101007.56
2022-12-03T02:31:06.629Z,101001.66
2022-12-03T02:33:34.463Z,101003.94
2022-12-03T02:36:04.088Z,101004.09
2022-12-03T02:38:33.862Z,101010.81
2022-12-03T02:41:06.400Z,101006.38
2022-12-03T02:43:34.166Z,101010.81
2022-12-03T02:46:03.794Z,101002.78
2022-12-03T02:48:37.793Z,101006.88
2022-12-03T02:51:09.041Z,100997.38
2022-12-03T02:53:42.878Z,100994.47
2022-12-03T02:56:13.299Z,100998.22
2022-12-03T02:58:43.701Z,100998.22
2022-12-03T03:01:11.641Z,101002.44
2022-12-03T03:03:40.256Z,100984.44
2022-12-03T03:06:09.018Z,100994.59
2022-12-03T03:08:38.446Z,101001.00
2022-12-03T03:11:06.387Z,100986.25
2022-12-03T03:13:35.737Z,100986.91
2022-12-03T03:16:06.374Z,100996.06
2022-12-03T03:18:35.319Z,100986.25
2022-12-03T03:21:04.264Z,100993.13
2022-12-03T03:23:31.850Z,100989.66
2022-12-03T03:26:00.644Z,100987.56
2022-12-03T03:28:30.696Z,100981.00
2022-12-03T03:31:00.977Z,100983.47
2022-12-03T03:33:28.907Z,100985.72
2022-12-03T03:35:57.380Z,100978.19
2022-12-03T03:38:25.290Z,100979.69
2022-12-03T03:40:53.671Z,100973.16
2022-12-03T03:43:23.321Z,100990.19
2022-12-03T03:45:51.907Z,100985.28
2022-12-03T03:48:20.487Z,100967.06
2022-12-03T03:50:48.600Z,100987.06
2022-12-03T03:53:17.247Z,100981.69
2022-12-03T03:55:45.322Z,100965.78
2022-12-03T03:58:13.525Z,100972.34
2022-12-03T04:00:44.658Z,100974.50
2022-12-03T04:03:13.096Z,100974.81
2022-12-03T04:05:40.929Z,100980.34
2022-12-03T04:08:08.538Z,100969.88
2022-12-03T04:10:54.414Z,100972.28
2022-12-03T04:13:21.929Z,100978.38
2022-12-03T04:15:49.526Z,100981.00
2022-12-03T04:18:35.192Z,100969.91
2022-12-03T04:21:21.142Z,100971.56
2022-12-03T04:23:48.628Z,100963.59
2022-12-03T04:26:34.277Z,100969.59
2022-12-03T04:29:01.903Z,100967.22
2022-12-03T04:31:47.992Z,100968.41
2022-12-03T04:34:33.694Z,100969.91
2022-12-03T04:37:01.194Z,100970.78
2022-12-03T04:39:28.706Z,100979.81
2022-12-03T04:41:56.182Z,100975.34
2022-12-03T04:44:38.516Z,100969.19
2022-12-03T04:47:09.577Z,100968.38
2022-12-03T04:49:39.706Z,100968.34
2022-12-03T04:52:07.742Z,100966.59
2022-12-03T04:54:35.573Z,100967.81
2022-12-03T04:57:03.516Z,100960.88
2022-12-03T04:59:31.086Z,100968.53
2022-12-03T05:01:58.931Z,100961.91
2022-12-03T05:04:26.998Z,100964.78
2022-12-03T05:06:54.590Z,100968.59
2022-12-03T05:09:22.183Z,100962.19
2022-12-03T05:11:49.699Z,100955.34
2022-12-03T05:14:17.241Z,100954.72
2022-12-03T05:16:44.867Z,100953.19
2022-12-03T05:19:12.354Z,100946.47
2022-12-03T05:21:39.901Z,100946.41
2022-12-03T05:24:07.481Z,100941.59
2022-12-03T05:26:35.131Z,100947.34
2022-12-03T05:29:02.892Z,100953.03
2022-12-03T05:31:30.436Z,100952.53
2022-12-03T05:33:57.977Z,100960.75
2022-12-03T05:36:25.851Z,100960.47
2022-12-03T05:38:53.352Z,100955.28
2022-12-03T05:41:39.071Z,100939.56
2022-12-03T05:44:06.732Z,100952.19
2022-12-03T05:46:34.317Z,100959.84
2022-12-03T05:49:01.801Z,100953.06
2022-12-03T05:51:29.451Z,100951.19
2022-12-03T05:53:57.707Z,100952.47
2022-12-03T05:56:25.163Z,100937.78
2022-12-03T05:58:52.691Z,100952.91
2022-12-03T06:01:22.056Z,100951.00
2022-12-03T06:03:49.640Z,100956.94
2022-12-03T06:06:17.262Z,100958.50
2022-12-03T06:08:44.825Z,100955.47
2022-12-03T06:11:12.318Z,100947.59
2022-12-03T06:13:39.748Z,100947.47
2022-12-03T06:16:07.429Z,100944.06
2022-12-03T06:18:34.950Z,100939.34
2022-12-03T06:21:02.409Z,100946.41
2022-12-03T06:23:29.862Z,100942.97
2022-12-03T06:25:57.389Z,100938.94
2022-12-03T06:28:24.825Z,100949.47
2022-12-03T06:30:52.495Z,100949.44
2022-12-03T06:33:19.906Z,100940.28
2022-12-03T06:35:47.371Z,100936.50
2022-12-03T06:38:14.864Z,100930.53
2022-12-03T06:40:42.374Z,100932.06
2022-12-03T06:43:09.831Z,100934.19
2022-12-03T06:45:37.305Z,100931.44
2022-12-03T06:48:05.110Z,100923.88
2022-12-03T06:50:32.561Z,100927.91
2022-12-03T06:53:00.075Z,100922.25
2022-12-03T06:55:27.712Z,100924.44
2022-12-03T06:57:55.079Z,100927.72
2022-12-03T07:00:22.843Z,100931.53
2022-12-03T07:02:51.761Z,100924.56
2022-12-03T07:05:20.282Z,100920.59
2022-12-03T07:07:52.312Z,100919.06
2022-12-03T07:10:20.064Z,100917.97
2022-12-03T07:12:47.682Z,100904.47
2022-12-03T07:15:15.255Z,100905.41
2022-12-03T07:17:42.775Z,100907.72
2022-12-03T07:20:11.028Z,100900.50
2022-12-03T07:22:38.564Z,100899.97
2022-12-03T07:25:06.698Z,100900.25
2022-12-03T07:27:34.128Z,100898.63
2022-12-03T07:30:01.620Z,100887.78
2022-12-03T07:32:29.524Z,100887.94
2022-12-03T07:34:57.005Z,100884.75
2022-12-03T07:37:24.456Z,100882.19
2022-12-03T07:39:52.872Z,100880.38
2022-12-03T07:42:20.444Z,100873.97
2022-12-03T07:44:47.965Z,100870.66
2022-12-03T07:47:15.398Z,100870.38
2022-12-03T07:49:42.880Z,100876.44
2022-12-03T07:52:10.372Z,100878.66
2022-12-03T07:54:37.898Z,100865.94
2022-12-03T07:57:05.275Z,100869.31
2022-12-03T07:59:32.857Z,100865.66
2022-12-03T08:02:00.438Z,100862.31
2022-12-03T08:04:27.970Z,100864.44
2022-12-03T08:06:55.600Z,100856.81
2022-12-03T08:09:23.046Z,100857.13
2022-12-03T08:11:50.832Z,100856.00
2022-12-03T08:14:20.484Z,100859.28
2022-12-03T08:16:49.170Z,100855.06
2022-12-03T08:19:18.576Z,100836.88
2022-12-03T08:21:46.337Z,100858.03
2022-12-03T08:24:19.798Z,100847.91
2022-12-03T08:26:49.160Z,100851.66
2022-12-03T08:29:18.928Z,100849.72
2022-12-03T08:31:52.595Z,100852.59
2022-12-03T08:34:26.755Z,100851.19
2022-12-03T08:37:06.730Z,100848.50
2022-12-03T08:39:40.878Z,100851.09
2022-12-03T08:42:26.962Z,100853.81
2022-12-03T08:44:56.219Z,100854.03
2022-12-03T08:47:25.307Z,100853.03
2022-12-03T08:49:58.421Z,100847.75
2022-12-03T08:52:33.817Z,100840.81
2022-12-03T08:55:23.330Z,100842.88
2022-12-03T08:57:50.977Z,100834.13
2022-12-03T09:00:23.347Z,100832.91
2022-12-03T09:02:55.340Z,100827.78
2022-12-03T09:05:27.739Z,100828.19
2022-12-03T09:07:55.255Z,100819.09
2022-12-03T09:10:22.758Z,100818.88
2022-12-03T09:12:50.344Z,100814.38
2022-12-03T09:15:17.894Z,100815.03
2022-12-03T09:17:45.575Z,100802.22
2022-12-03T09:20:13.223Z,100808.53
2022-12-03T09:22:40.701Z,100796.53
2022-12-03T09:25:08.475Z,100800.59
2022-12-03T09:27:36.057Z,100790.22
2022-12-03T09:30:04.804Z,100794.91
2022-12-03T09:32:32.527Z,100794.91
2022-12-03T09:35:00.106Z,100795.13
2022-12-03T09:37:27.626Z,100785.94
2022-12-03T09:39:55.142Z,100783.13
2022-12-03T09:42:22.943Z,100789.63
2022-12-03T09:44:50.445Z,100777.81
2022-12-03T09:47:18.435Z,100775.34
2022-12-03T09:49:46.149Z,100771.09
2022-12-03T09:52:23.849Z,100770.69
2022-12-03T09:54:52.761Z,100759.94
2022-12-03T09:57:20.810Z,100765.59
2022-12-03T09:59:48.324Z,100761.94
2022-12-03T10:02:24.757Z,100761.94
2022-12-03T10:04:53.582Z,100772.53
2022-12-03T10:07:21.361Z,100753.59
2022-12-03T10:09:48.917Z,100755.00
2022-12-03T10:12:23.867Z,100750.16
2022-12-03T10:14:53.108Z,100751.97
2022-12-03T10:17:20.835Z,100746.25
2022-12-03T10:19:48.936Z,100746.25
2022-12-03T10:22:16.494Z,100747.69
2022-12-03T10:24:45.155Z,100735.06
2022-12-03T10:27:29.751Z,100736.50
2022-12-03T10:29:59.654Z,100741.38
2022-12-03T10:32:45.709Z,100742.00
2022-12-03T10:35:17.549Z,100749.91
2022-12-03T10:38:07.702Z,100739.72
2022-12-03T10:40:38.075Z,100742.34
2022-12-03T10:43:20.610Z,100739.06
2022-12-03T10:46:17.359Z,100732.97
2022-12-03T10:48:44.957Z,100730.00
2022-12-03T10:51:22.905Z,100728.75
2022-12-03T10:53:51.345Z,100737.69
2022-12-03T10:56:25.223Z,100729.31
2022-12-03T10:58:53.598Z,100711.75
2022-12-03T11:01:26.485Z,100725.13
2022-12-03T11:04:05.022Z,100730.44
2022-12-03T11:06:35.194Z,100723.88
2022-12-03T11:09:08.877Z,100719.63
2022-12-03T11:11:37.144Z,100721.44
2022-12-03T11:14:05.309Z,100714.75
2022-12-03T11:16:42.077Z,100713.84
2022-12-03T11:19:18.104Z,100706.88
2022-12-03T11:22:07.064Z,100711.53
2022-12-03T11:24:37.156Z,100705.38
2022-12-03T11:27:04.629Z,100705.59
2022-12-03T11:30:10.922Z,100709.66
2022-12-03T11:32:38.359Z,100704.47
2022-12-03T11:35:12.885Z,100702.28
2022-12-03T11:37:40.539Z,100691.69
2022-12-03T11:40:17.281Z,100693.75
2022-12-03T11:42:47.027Z,100695.91
2022-12-03T11:45:37.164Z,100694.09
2022-12-03T11:48:16.462Z,100684.38
2022-12-03T11:50:54.307Z,100693.28
2022-12-03T11:53:25.232Z,100688.25
2022-12-03T11:56:09.335Z,100682.00
2022-12-03T11:58:43.381Z,100680.47
2022-12-03T12:01:11.186Z,100682.59
2022-12-03T12:03:50.404Z,100682.50
2022-12-03T12:06:20.853Z,100677.53
2022-12-03T12:08:51.593Z,100677.06
2022-12-03T12:11:29.719Z,100678.34
2022-12-03T12:14:08.041Z,100653.66
2022-12-03T12:16:50.704Z,100658.16
2022-12-03T12:19:34.013Z,100674.84
2022-12-03T12:22:25.282Z,100670.03
2022-12-03T12:25:00.865Z,100667.94
2022-12-03T12:27:35.355Z,100667.50
2022-12-03T12:30:23.541Z,100659.16
2022-12-03T12:33:16.117Z,100668.59
2022-12-03T12:35:43.842Z,100660.38
2022-12-03T12:38:17.609Z,100645.16
2022-12-03T12:40:49.394Z,100646.06
2022-12-03T12:43:24.159Z,100650.13
2022-12-03T12:46:09.454Z,100641.16
2022-12-03T12:48:47.856Z,100647.84
2022-12-03T12:51:19.928Z,100633.34
2022-12-03T12:53:48.269Z,100636.41
2022-12-03T12:56:31.374Z,100639.84
2022-12-03T12:59:16.316Z,100636.03
2022-12-03T13:01:45.143Z,100625.53
2022-12-03T13:04:16.428Z,100636.31
2022-12-03T13:06:44.683Z,100621.91
2022-12-03T13:09:19.375Z,100622.53
2022-12-03T13:11:52.485Z,100620.81
2022-12-03T13:14:25.516Z,100623.88
2022-12-03T13:16:55.639Z,100626.09
2022-12-03T13:19:30.574Z,100618.63
2022-12-03T13:22:01.968Z,100621.44
2022-12-03T13:24:34.173Z,100622.09
2022-12-03T13:27:20.090Z,100624.13
2022-12-03T13:29:54.821Z,100617.00
2022-12-03T13:32:27.951Z,100617.59
2022-12-03T13:35:04.348Z,100615.25
2022-12-03T13:37:32.419Z,100607.84
2022-12-03T13:40:12.312Z,100611.53
2022-12-03T13:42:40.947Z,100606.56
2022-12-03T13:45:35.843Z,100600.47
2022-12-03T13:48:22.094Z,100609.63
2022-12-03T13:50:50.804Z,100599.94
2022-12-03T13:53:33.371Z,100605.44
2022-12-03T13:56:16.926Z,100600.75
2022-12-03T13:58:44.365Z,100598.06
2022-12-03T14:01:11.946Z,100588.53
2022-12-03T14:03:39.362Z,100598.06
2022-12-03T14:06:07.346Z,100600.97
2022-12-03T14:08:34.867Z,100605.75
2022-12-03T14:11:02.774Z,100598.22
2022-12-03T14:13:30.327Z,100597.94
2022-12-03T14:15:57.892Z,100593.59
2022-12-03T14:18:25.508Z,100594.97
2022-12-03T14:20:52.964Z,100580.56
2022-12-03T14:23:20.486Z,100590.31
2022-12-03T14:25:47.912Z,100575.81
2022-12-03T14:28:15.479Z,100575.00
2022-12-03T14:30:42.989Z,100578.63
2022-12-03T14:33:10.533Z,100573.84
2022-12-03T14:35:38.011Z,100559.63
2022-12-03T14:38:05.522Z,100564.44
2022-12-03T14:40:33.145Z,100564.25
2022-12-03T14:43:00.626Z,100561.81
2022-12-03T14:45:30.175Z,100571.03
2022-12-03T14:47:57.743Z,100558.91
2022-12-03T14:50:26.602Z,100558.34
2022-12-03T14:52:54.283Z,100567.13
2022-12-03T14:55:21.938Z,100563.78
2022-12-03T14:57:50.601Z,100555.91
2022-12-03T15:00:18.766Z,100554.66
2022-12-03T15:02:46.462Z,100542.97
2022-12-03T15:05:14.079Z,100539.25
2022-12-03T15:07:41.693Z,100540.78
2022-12-03T15:10:09.701Z,100546.47
2022-12-03T15:12:37.222Z,100540.97
2022-12-03T15:15:05.011Z,100534.81
2022-12-03T15:17:32.782Z,100538.88
2022-12-03T15:20:00.837Z,100535.53
2022-12-03T15:22:28.728Z,100530.91
2022-12-03T15:24:56.198Z,100533.44
2022-12-03T15:27:23.700Z,100527.13
2022-12-03T15:29:51.573Z,100524.94
2022-12-03T15:32:19.222Z,100527.13
2022-12-03T15:34:47.069Z,100519.06
2022-12-03T15:37:20.062Z,100517.06
2022-12-03T15:39:50.387Z,100517.44
2022-12-03T15:42:17.956Z,100514.63
2022-12-03T15:44:46.509Z,100517.53
2022-12-03T15:47:14.001Z,100515.44
2022-12-03T15:49:41.475Z,100509.09
2022-12-03T15:52:08.949Z,100513.81
2022-12-03T15:54:36.587Z,100512.97
2022-12-03T15:57:04.217Z,100511.63
2022-12-03T15:59:31.801Z,100513.09
2022-12-03T16:01:59.393Z,100509.09
2022-12-03T16:04:27.011Z,100504.31
2022-12-03T16:06:54.565Z,100500.59
2022-12-03T16:09:27.159Z,100497.59
2022-12-03T16:11:55.312Z,100493.06
2022-12-03T16:14:22.911Z,100492.25
2022-12-03T16:16:50.478Z,100481.56
2022-12-03T16:19:17.990Z,100489.00
2022-12-03T16:21:45.537Z,100485.09
2022-12-03T16:24:13.208Z,100483.47
2022-12-03T16:26:40.698Z,100479.56
2022-12-03T16:29:23.625Z,100476.25
2022-12-03T16:31:51.156Z,100474.31
2022-12-03T16:34:18.709Z,100487.38
2022-12-03T16:36:47.851Z,100481.13
2022-12-03T16:39:16.710Z,100475.56
2022-12-03T16:41:44.587Z,100479.94
2022-12-03T16:44:20.584Z,100475.66
2022-12-03T16:46:48.137Z,100476.50
2022-12-03T16:49:15.793Z,100474.31
2022-12-03T16:51:43.237Z,100485.28
2022-12-03T16:54:11.984Z,100464.16
2022-12-03T16:56:39.482Z,100466.13
2022-12-03T16:59:06.912Z,100460.84
2022-12-03T17:01:34.495Z,100466.81
2022-12-03T17:04:02.043Z,100453.88
2022-12-03T17:06:29.543Z,100459.13
2022-12-03T17:08:57.009Z,100442.75
2022-12-03T17:11:24.642Z,100445.88
2022-12-03T17:13:52.099Z,100438.19
2022-12-03T17:16:19.646Z,100436.84
2022-12-03T17:18:48.294Z,100442.47
2022-12-03T17:21:15.885Z,100449.59
2022-12-03T17:23:45.003Z,100442.78
2022-12-03T17:26:13.934Z,100438.19
2022-12-03T17:28:41.475Z,100437.34
2022-12-03T17:31:08.987Z,100438.78
2022-12-03T17:33:36.660Z,100434.00
2022-12-03T17:36:04.607Z,100431.00
2022-12-03T17:38:37.332Z,100442.50
2022-12-03T17:41:07.608Z,100430.34
2022-12-03T17:43:35.156Z,100441.22
2022-12-03T17:46:02.660Z,100441.41
2022-12-03T17:48:31.549Z,100439.34
2022-12-03T17:50:59.346Z,100440.63
2022-12-03T17:53:26.810Z,100437.69
2022-12-03T17:55:54.360Z,100439.06
2022-12-03T17:58:21.910Z,100441.88
2022-12-03T18:00:49.461Z,100429.47
2022-12-03T18:03:16.901Z,100435.75
2022-12-03T18:05:45.134Z,100412.13
2022-12-03T18:08:12.649Z,100419.06
2022-12-03T18:10:40.134Z,100426.94
2022-12-03T18:13:07.742Z,100430.88
2022-12-03T18:15:35.246Z,100429.31
2022-12-03T18:18:02.730Z,100418.63
2022-12-03T18:20:31.620Z,100408.69
2022-12-03T18:23:00.668Z,100411.03
2022-12-03T18:25:28.837Z,100411.53
2022-12-03T18:27:56.917Z,100404.47
2022-12-03T18:30:24.567Z,100364.34
2022-12-03T18:32:52.190Z,100396.25
2022-12-03T18:35:20.955Z,100387.84
2022-12-03T18:37:51.475Z,100380.31
2022-12-03T18:40:27.408Z,100391.97
2022-12-03T18:42:57.770Z,100386.53
2022-12-03T18:45:25.295Z,100384.34
2022-12-03T18:47:52.928Z,100378.72
2022-12-03T18:50:20.531Z,100380.16
2022-12-03T18:52:47.975Z,100383.66
2022-12-03T18:55:19.367Z,100383.56
2022-12-03T18:57:46.867Z,100382.38
2022-12-03T19:00:15.995Z,100382.56
2022-12-03T19:03:02.600Z,100368.63
2022-12-03T19:05:33.136Z,100375.06
2022-12-03T19:08:01.139Z,100366.88
2022-12-03T19:10:28.882Z,100365.06
2022-12-03T19:12:56.390Z,100368.38
2022-12-03T19:15:24.309Z,100351.03
2022-12-03T19:17:51.846Z,100373.63
2022-12-03T19:20:19.407Z,100365.00
2022-12-03T19:22:46.909Z,100351.31
2022-12-03T19:25:14.369Z,100353.69
2022-12-03T19:27:41.797Z,100357.81
2022-12-03T19:30:10.757Z,100361.88
2022-12-03T19:32:38.275Z,100363.38
2022-12-03T19:35:07.790Z,100358.75
2022-12-03T19:37:35.374Z,100366.44
2022-12-03T19:40:03.409Z,100355.53
2022-12-03T19:42:31.589Z,100346.06
2022-12-03T19:44:59.206Z,100351.41
2022-12-03T19:47:26.859Z,100352.03
2022-12-03T19:49:54.559Z,100345.41
2022-12-03T19:52:22.265Z,100348.88
2022-12-03T19:54:49.732Z,100336.13
2022-12-03T19:57:23.071Z,100336.97
2022-12-03T19:59:52.302Z,100328.44
2022-12-03T20:02:20.043Z,100337.84
2022-12-03T20:04:47.565Z,100340.66
2022-12-03T20:07:15.081Z,100332.72
2022-12-03T20:09:42.645Z,100333.72
2022-12-03T20:12:29.992Z,100325.63
2022-12-03T20:14:57.642Z,100328.31
2022-12-03T20:17:25.170Z,100331.94
2022-12-03T20:19:52.721Z,100334.56
2022-12-03T20:22:20.404Z,100337.97
2022-12-03T20:24:47.922Z,100316.84
2022-12-03T20:27:22.681Z,100322.97
2022-12-03T20:29:50.557Z,100328.25
2022-12-03T20:32:18.061Z,100328.22
2022-12-03T20:34:45.910Z,100321.75
2022-12-03T20:37:13.343Z,100323.34
2022-12-03T20:39:40.886Z,100322.53
2022-12-03T20:42:13.189Z,100323.44
2022-12-03T20:44:40.620Z,100327.31
2022-12-03T20:47:08.166Z,100329.34
2022-12-03T20:49:39.281Z,100292.81
2022-12-03T20:52:06.677Z,100313.56
2022-12-03T20:54:34.259Z,100315.06
2022-12-03T20:57:01.696Z,100317.13
2022-12-03T20:59:30.519Z,100309.25
2022-12-03T21:01:58.179Z,100300.34
2022-12-03T21:04:25.673Z,100306.47
2022-12-03T21:06:54.380Z,100308.31
2022-12-03T21:09:21.854Z,100306.94
2022-12-03T21:11:49.459Z,100299.44
2022-12-03T21:14:16.969Z,100294.41
2022-12-03T21:19:37.140Z,100288.72
2022-12-03T21:22:04.884Z,100293.00
2022-12-03T21:24:33.709Z,100282.88
2022-12-03T21:27:01.344Z,100276.78
2022-12-03T21:29:28.834Z,100275.38
2022-12-03T21:31:56.329Z,100270.91
2022-12-03T21:34:23.876Z,100269.72
2022-12-03T21:36:51.378Z,100270.91
2022-12-03T21:39:19.691Z,100265.88
2022-12-03T21:42:34.252Z,100265.00
2022-12-03T21:44:36.133Z,100259.56
2022-12-03T21:47:12.823Z,100263.00
2022-12-03T21:49:42.076Z,100250.44
2022-12-03T21:52:10.467Z,100253.28
2022-12-03T21:54:38.027Z,100250.66
2022-12-03T21:57:05.481Z,100255.91
2022-12-03T21:59:33.148Z,100251.66
2022-12-03T22:02:00.624Z,100248.81
2022-12-03T22:04:28.361Z,100239.09
2022-12-03T22:06:55.846Z,100247.00
2022-12-03T22:09:26.520Z,100241.13
2022-12-03T22:11:59.567Z,100240.75
2022-12-03T22:14:28.127Z,100238.91
2022-12-03T22:16:55.829Z,100243.41
2022-12-03T22:19:23.877Z,100237.72
2022-12-03T22:21:51.449Z,100229.19
2022-12-03T22:24:19.821Z,100224.53
2022-12-03T22:26:47.870Z,100215.19
2022-12-03T22:29:15.682Z,100224.09
2022-12-03T22:31:43.188Z,100226.09
2022-12-03T22:34:10.734Z,100229.38
2022-12-03T22:36:38.455Z,100208.28
2022-12-03T22:39:05.993Z,100210.16
2022-12-03T22:41:33.417Z,100209.56
2022-12-03T22:44:00.909Z,100211.16
2022-12-03T22:46:28.489Z,100217.88
2022-12-03T22:48:56.009Z,100210.19
2022-12-03T22:51:25.652Z,100201.47
2022-12-03T22:54:01.474Z,100214.03
2022-12-03T22:56:30.807Z,100203.94
2022-12-03T22:58:59.706Z,100207.38
2022-12-03T23:01:30.209Z,100195.63
2022-12-03T23:03:58.097Z,100201.31
2022-12-03T23:06:26.381Z,100195.00
2022-12-03T23:08:54.303Z,100179.00
2022-12-03T23:11:22.618Z,100183.06
2022-12-03T23:13:50.180Z,100180.22
2022-12-03T23:16:21.287Z,100186.25
2022-12-03T23:18:49.093Z,100180.63
2022-12-03T23:21:25.412Z,100182.41
2022-12-03T23:23:56.369Z,100175.34
2022-12-03T23:26:23.864Z,100173.28
2022-12-03T23:28:51.318Z,100180.78
2022-12-03T23:31:27.209Z,100184.63
2022-12-03T23:33:56.098Z,100175.09
2022-12-03T23:36:25.536Z,100168.22
2022-12-03T23:38:53.096Z,100170.44
2022-12-03T23:41:22.613Z,100171.88
2022-12-03T23:43:50.589Z,100174.31
2022-12-03T23:46:21.409Z,100167.03
2022-12-03T23:48:49.569Z,100165.19
2022-12-03T23:51:20.018Z,100155.44
2022-12-03T23:53:48.045Z,100143.09
2022-12-03T23:56:18.724Z,100137.41
2022-12-03T23:58:46.714Z,100138.41
